sensor_id;sensor_type;location;lat;lon;timestamp;P1;durP1;ratioP1;P2;durP2;ratioP2
13374;SDS011;6756;51.354;15.754;2022-07-17T00:00:44;1.47;;;0.80;;
13374;SDS011;6756;51.354;15.754;2022-07-17T00:04:45;2.57;;;0.80;;
13374;SDS011;6756;51.354;15.754;2022-07-17T00:08:46;2.73;;;1.00;;
13374;SDS011;6756;51.354;15.754;2022-07-17T00:12:46;1.37;;;0.60;;
13374;SDS011;6756;51.354;15.754;2022-07-17T00:16:47;1.37;;;0.60;;
13374;SDS011;6756;51.354;15.754;2022-07-17T00:20:48;1.30;;;0.70;;
13374;SDS011;6756;51.354;15.754;2022-07-17T00:24:49;1.93;;;0.90;;
13374;SDS011;6756;51.354;15.754;2022-07-17T00:28:50;1.57;;;0.60;;
13374;SDS011;6756;51.354;15.754;2022-07-17T00:32:50;2.23;;;0.70;;
13374;SDS011;6756;51.354;15.754;2022-07-17T00:36:51;1.13;;;0.70;;
13374;SDS011;6756;51.354;15.754;2022-07-17T00:40:53;3.00;;;0.90;;
13374;SDS011;6756;51.354;15.754;2022-07-17T00:44:55;1.27;;;0.60;;
13374;SDS011;6756;51.354;15.754;2022-07-17T00:48:57;1.17;;;0.80;;
13374;SDS011;6756;51.354;15.754;2022-07-17T00:52:58;2.47;;;1.20;;
13374;SDS011;6756;51.354;15.754;2022-07-17T00:56:58;1.57;;;0.77;;
13374;SDS011;6756;51.354;15.754;2022-07-17T01:01:03;4.00;;;0.90;;
13374;SDS011;6756;51.354;15.754;2022-07-17T01:05:06;1.87;;;0.80;;
13374;SDS011;6756;51.354;15.754;2022-07-17T01:09:09;1.07;;;0.63;;
13374;SDS011;6756;51.354;15.754;2022-07-17T01:13:11;2.90;;;0.73;;
13374;SDS011;6756;51.354;15.754;2022-07-17T01:17:11;3.67;;;0.80;;
13374;SDS011;6756;51.354;15.754;2022-07-17T01:21:13;3.50;;;1.23;;
13374;SDS011;6756;51.354;15.754;2022-07-17T01:25:14;1.40;;;0.80;;
13374;SDS011;6756;51.354;15.754;2022-07-17T01:29:15;2.00;;;0.87;;
13374;SDS011;6756;51.354;15.754;2022-07-17T01:33:17;1.23;;;0.90;;
13374;SDS011;6756;51.354;15.754;2022-07-17T01:37:18;2.33;;;0.93;;
13374;SDS011;6756;51.354;15.754;2022-07-17T01:41:19;1.57;;;1.07;;
13374;SDS011;6756;51.354;15.754;2022-07-17T01:45:19;1.57;;;0.87;;
13374;SDS011;6756;51.354;15.754;2022-07-17T01:49:20;1.73;;;1.00;;
13374;SDS011;6756;51.354;15.754;2022-07-17T01:53:21;2.90;;;1.20;;
13374;SDS011;6756;51.354;15.754;2022-07-17T01:57:22;2.57;;;1.00;;
13374;SDS011;6756;51.354;15.754;2022-07-17T02:01:23;2.23;;;0.87;;
13374;SDS011;6756;51.354;15.754;2022-07-17T02:05:23;3.03;;;1.17;;
13374;SDS011;6756;51.354;15.754;2022-07-17T02:09:24;2.50;;;0.90;;
13374;SDS011;6756;51.354;15.754;2022-07-17T02:13:25;2.07;;;1.20;;
13374;SDS011;6756;51.354;15.754;2022-07-17T02:17:26;2.97;;;1.33;;
13374;SDS011;6756;51.354;15.754;2022-07-17T02:21:26;1.73;;;0.90;;
13374;SDS011;6756;51.354;15.754;2022-07-17T02:25:27;2.70;;;1.00;;
13374;SDS011;6756;51.354;15.754;2022-07-17T02:29:28;1.63;;;0.80;;
13374;SDS011;6756;51.354;15.754;2022-07-17T02:33:29;4.33;;;1.40;;
13374;SDS011;6756;51.354;15.754;2022-07-17T02:37:29;4.13;;;1.73;;
13374;SDS011;6756;51.354;15.754;2022-07-17T02:41:30;3.27;;;1.37;;
13374;SDS011;6756;51.354;15.754;2022-07-17T02:45:31;2.00;;;1.00;;
13374;SDS011;6756;51.354;15.754;2022-07-17T02:49:32;2.87;;;1.10;;
13374;SDS011;6756;51.354;15.754;2022-07-17T02:53:32;3.00;;;1.00;;
13374;SDS011;6756;51.354;15.754;2022-07-17T02:57:33;2.40;;;0.90;;
13374;SDS011;6756;51.354;15.754;2022-07-17T03:01:34;1.37;;;1.00;;
13374;SDS011;6756;51.354;15.754;2022-07-17T03:05:35;3.30;;;1.03;;
13374;SDS011;6756;51.354;15.754;2022-07-17T03:09:35;2.97;;;0.93;;
13374;SDS011;6756;51.354;15.754;2022-07-17T03:13:36;1.80;;;1.07;;
13374;SDS011;6756;51.354;15.754;2022-07-17T03:17:40;3.73;;;1.20;;
13374;SDS011;6756;51.354;15.754;2022-07-17T03:21:41;2.57;;;1.00;;
13374;SDS011;6756;51.354;15.754;2022-07-17T03:25:42;2.73;;;1.07;;
13374;SDS011;6756;51.354;15.754;2022-07-17T03:29:43;3.67;;;1.13;;
13374;SDS011;6756;51.354;15.754;2022-07-17T03:33:44;3.77;;;1.37;;
13374;SDS011;6756;51.354;15.754;2022-07-17T03:37:45;2.70;;;1.13;;
13374;SDS011;6756;51.354;15.754;2022-07-17T03:41:46;2.47;;;1.13;;
13374;SDS011;6756;51.354;15.754;2022-07-17T03:45:46;4.03;;;1.30;;
13374;SDS011;6756;51.354;15.754;2022-07-17T03:49:47;3.00;;;1.20;;
13374;SDS011;6756;51.354;15.754;2022-07-17T03:53:48;4.60;;;1.30;;
13374;SDS011;6756;51.354;15.754;2022-07-17T03:57:48;2.30;;;0.90;;
13374;SDS011;6756;51.354;15.754;2022-07-17T04:01:49;3.93;;;1.13;;
13374;SDS011;6756;51.354;15.754;2022-07-17T04:05:50;3.93;;;1.10;;
13374;SDS011;6756;51.354;15.754;2022-07-17T04:09:52;3.37;;;1.00;;
13374;SDS011;6756;51.354;15.754;2022-07-17T04:13:54;4.07;;;1.40;;
13374;SDS011;6756;51.354;15.754;2022-07-17T04:17:54;2.83;;;1.00;;
13374;SDS011;6756;51.354;15.754;2022-07-17T04:21:55;4.93;;;1.30;;
13374;SDS011;6756;51.354;15.754;2022-07-17T04:25:56;3.03;;;1.20;;
13374;SDS011;6756;51.354;15.754;2022-07-17T04:29:57;2.67;;;1.20;;
13374;SDS011;6756;51.354;15.754;2022-07-17T04:33:58;4.53;;;0.97;;
13374;SDS011;6756;51.354;15.754;2022-07-17T04:38:02;8.03;;;1.50;;
13374;SDS011;6756;51.354;15.754;2022-07-17T04:42:04;7.67;;;1.47;;
13374;SDS011;6756;51.354;15.754;2022-07-17T04:46:05;3.10;;;0.90;;
13374;SDS011;6756;51.354;15.754;2022-07-17T04:50:07;3.67;;;1.10;;
13374;SDS011;6756;51.354;15.754;2022-07-17T04:54:08;2.73;;;1.00;;
13374;SDS011;6756;51.354;15.754;2022-07-17T04:58:09;3.20;;;0.70;;
13374;SDS011;6756;51.354;15.754;2022-07-17T05:02:10;3.03;;;1.10;;
13374;SDS011;6756;51.354;15.754;2022-07-17T05:06:11;4.50;;;0.93;;
13374;SDS011;6756;51.354;15.754;2022-07-17T05:10:11;3.27;;;1.00;;
13374;SDS011;6756;51.354;15.754;2022-07-17T05:14:12;3.77;;;1.00;;
13374;SDS011;6756;51.354;15.754;2022-07-17T05:18:13;2.37;;;0.93;;
13374;SDS011;6756;51.354;15.754;2022-07-17T05:22:14;3.13;;;0.90;;
13374;SDS011;6756;51.354;15.754;2022-07-17T05:26:15;2.83;;;1.20;;
13374;SDS011;6756;51.354;15.754;2022-07-17T05:30:15;7.67;;;1.43;;
13374;SDS011;6756;51.354;15.754;2022-07-17T05:34:16;7.03;;;1.10;;
13374;SDS011;6756;51.354;15.754;2022-07-17T05:38:17;4.67;;;1.03;;
13374;SDS011;6756;51.354;15.754;2022-07-17T05:42:18;4.97;;;1.33;;
13374;SDS011;6756;51.354;15.754;2022-07-17T05:46:19;5.33;;;1.03;;
13374;SDS011;6756;51.354;15.754;2022-07-17T05:50:19;2.87;;;1.10;;
13374;SDS011;6756;51.354;15.754;2022-07-17T05:54:20;4.17;;;1.10;;
13374;SDS011;6756;51.354;15.754;2022-07-17T05:58:22;3.00;;;1.10;;
13374;SDS011;6756;51.354;15.754;2022-07-17T06:02:22;3.77;;;1.10;;
13374;SDS011;6756;51.354;15.754;2022-07-17T06:06:23;2.53;;;0.90;;
13374;SDS011;6756;51.354;15.754;2022-07-17T06:10:25;3.50;;;1.17;;
13374;SDS011;6756;51.354;15.754;2022-07-17T06:14:26;7.60;;;1.87;;
13374;SDS011;6756;51.354;15.754;2022-07-17T06:18:27;3.20;;;0.97;;
13374;SDS011;6756;51.354;15.754;2022-07-17T06:22:28;3.13;;;0.90;;
13374;SDS011;6756;51.354;15.754;2022-07-17T06:26:29;3.90;;;1.17;;
13374;SDS011;6756;51.354;15.754;2022-07-17T06:30:29;4.47;;;1.07;;
13374;SDS011;6756;51.354;15.754;2022-07-17T06:34:30;5.10;;;1.60;;
13374;SDS011;6756;51.354;15.754;2022-07-17T06:38:32;3.73;;;1.00;;
13374;SDS011;6756;51.354;15.754;2022-07-17T06:42:33;5.33;;;1.33;;
13374;SDS011;6756;51.354;15.754;2022-07-17T06:46:34;5.00;;;0.90;;
13374;SDS011;6756;51.354;15.754;2022-07-17T06:50:35;4.13;;;1.33;;
13374;SDS011;6756;51.354;15.754;2022-07-17T06:54:36;3.97;;;1.00;;
13374;SDS011;6756;51.354;15.754;2022-07-17T06:58:37;3.80;;;1.00;;
13374;SDS011;6756;51.354;15.754;2022-07-17T07:02:37;4.47;;;0.97;;
13374;SDS011;6756;51.354;15.754;2022-07-17T07:06:38;2.60;;;0.80;;
13374;SDS011;6756;51.354;15.754;2022-07-17T07:10:39;2.10;;;0.77;;
13374;SDS011;6756;51.354;15.754;2022-07-17T07:14:40;6.53;;;0.70;;
13374;SDS011;6756;51.354;15.754;2022-07-17T07:18:41;3.57;;;0.93;;
13374;SDS011;6756;51.354;15.754;2022-07-17T07:22:42;2.80;;;0.60;;
13374;SDS011;6756;51.354;15.754;2022-07-17T07:26:42;5.13;;;1.10;;
13374;SDS011;6756;51.354;15.754;2022-07-17T07:30:43;4.67;;;1.00;;
13374;SDS011;6756;51.354;15.754;2022-07-17T07:34:44;5.43;;;0.93;;
13374;SDS011;6756;51.354;15.754;2022-07-17T07:38:45;2.37;;;0.80;;
13374;SDS011;6756;51.354;15.754;2022-07-17T07:42:46;3.87;;;1.00;;
13374;SDS011;6756;51.354;15.754;2022-07-17T07:46:47;5.40;;;0.80;;
13374;SDS011;6756;51.354;15.754;2022-07-17T07:50:48;3.67;;;0.80;;
13374;SDS011;6756;51.354;15.754;2022-07-17T07:54:50;7.03;;;1.50;;
13374;SDS011;6756;51.354;15.754;2022-07-17T07:58:50;7.23;;;1.30;;
13374;SDS011;6756;51.354;15.754;2022-07-17T08:02:51;3.57;;;1.07;;
13374;SDS011;6756;51.354;15.754;2022-07-17T08:06:52;4.40;;;1.27;;
13374;SDS011;6756;51.354;15.754;2022-07-17T08:10:53;4.67;;;1.00;;
13374;SDS011;6756;51.354;15.754;2022-07-17T08:14:54;4.43;;;0.97;;
13374;SDS011;6756;51.354;15.754;2022-07-17T08:18:55;4.03;;;0.80;;
13374;SDS011;6756;51.354;15.754;2022-07-17T08:22:56;6.63;;;1.10;;
13374;SDS011;6756;51.354;15.754;2022-07-17T08:26:57;3.40;;;1.47;;
13374;SDS011;6756;51.354;15.754;2022-07-17T08:30:57;4.73;;;0.70;;
13374;SDS011;6756;51.354;15.754;2022-07-17T08:34:58;3.80;;;1.20;;
13374;SDS011;6756;51.354;15.754;2022-07-17T08:38:59;1.53;;;0.63;;
13374;SDS011;6756;51.354;15.754;2022-07-17T08:43:00;1.97;;;1.00;;
13374;SDS011;6756;51.354;15.754;2022-07-17T08:47:03;3.73;;;1.00;;
13374;SDS011;6756;51.354;15.754;2022-07-17T08:51:05;1.03;;;0.50;;
13374;SDS011;6756;51.354;15.754;2022-07-17T08:55:08;2.70;;;0.90;;
13374;SDS011;6756;51.354;15.754;2022-07-17T08:59:14;5.13;;;1.23;;
13374;SDS011;6756;51.354;15.754;2022-07-17T09:03:15;2.90;;;1.00;;
13374;SDS011;6756;51.354;15.754;2022-07-17T09:07:17;3.77;;;1.00;;
13374;SDS011;6756;51.354;15.754;2022-07-17T09:11:18;6.40;;;1.60;;
13374;SDS011;6756;51.354;15.754;2022-07-17T09:15:19;3.23;;;0.87;;
13374;SDS011;6756;51.354;15.754;2022-07-17T09:20:02;4.57;;;0.90;;
13374;SDS011;6756;51.354;15.754;2022-07-17T09:23:57;1.77;;;0.80;;
13374;SDS011;6756;51.354;15.754;2022-07-17T09:28:06;2.40;;;0.93;;
13374;SDS011;6756;51.354;15.754;2022-07-17T09:32:08;4.93;;;1.10;;
13374;SDS011;6756;51.354;15.754;2022-07-17T09:36:10;5.27;;;1.20;;
13374;SDS011;6756;51.354;15.754;2022-07-17T09:40:14;2.10;;;0.53;;
13374;SDS011;6756;51.354;15.754;2022-07-17T09:44:34;4.30;;;1.10;;
13374;SDS011;6756;51.354;15.754;2022-07-17T09:48:35;3.03;;;0.80;;
13374;SDS011;6756;51.354;15.754;2022-07-17T09:52:41;3.60;;;0.77;;
13374;SDS011;6756;51.354;15.754;2022-07-17T09:56:44;4.03;;;0.83;;
13374;SDS011;6756;51.354;15.754;2022-07-17T10:00:47;3.23;;;0.70;;
13374;SDS011;6756;51.354;15.754;2022-07-17T10:04:48;6.20;;;0.87;;
13374;SDS011;6756;51.354;15.754;2022-07-17T10:08:50;4.13;;;0.97;;
13374;SDS011;6756;51.354;15.754;2022-07-17T10:12:51;5.03;;;0.90;;
13374;SDS011;6756;51.354;15.754;2022-07-17T10:16:53;1.87;;;0.60;;
13374;SDS011;6756;51.354;15.754;2022-07-17T10:20:53;3.93;;;0.70;;
13374;SDS011;6756;51.354;15.754;2022-07-17T10:25:16;3.07;;;0.53;;
13374;SDS011;6756;51.354;15.754;2022-07-17T10:33:35;4.00;;;0.77;;
13374;SDS011;6756;51.354;15.754;2022-07-17T10:41:38;2.17;;;0.70;;
13374;SDS011;6756;51.354;15.754;2022-07-17T10:45:41;3.13;;;0.60;;
13374;SDS011;6756;51.354;15.754;2022-07-17T10:49:43;3.83;;;0.90;;
13374;SDS011;6756;51.354;15.754;2022-07-17T10:53:43;2.53;;;0.80;;
13374;SDS011;6756;51.354;15.754;2022-07-17T10:57:44;1.93;;;0.67;;
13374;SDS011;6756;51.354;15.754;2022-07-17T11:01:55;3.93;;;0.83;;
13374;SDS011;6756;51.354;15.754;2022-07-17T11:06:06;4.17;;;0.87;;
13374;SDS011;6756;51.354;15.754;2022-07-17T11:10:08;3.70;;;1.03;;
13374;SDS011;6756;51.354;15.754;2022-07-17T11:14:18;3.40;;;0.80;;
13374;SDS011;6756;51.354;15.754;2022-07-17T11:18:20;1.80;;;0.90;;
13374;SDS011;6756;51.354;15.754;2022-07-17T11:22:22;3.03;;;0.73;;
13374;SDS011;6756;51.354;15.754;2022-07-17T11:26:24;8.03;;;1.10;;
13374;SDS011;6756;51.354;15.754;2022-07-17T11:30:25;4.07;;;1.20;;
13374;SDS011;6756;51.354;15.754;2022-07-17T11:34:28;3.33;;;0.90;;
13374;SDS011;6756;51.354;15.754;2022-07-17T11:38:30;3.80;;;0.63;;
13374;SDS011;6756;51.354;15.754;2022-07-17T11:42:31;5.07;;;0.97;;
13374;SDS011;6756;51.354;15.754;2022-07-17T11:46:32;1.70;;;0.83;;
13374;SDS011;6756;51.354;15.754;2022-07-17T11:50:33;2.87;;;0.73;;
13374;SDS011;6756;51.354;15.754;2022-07-17T11:54:51;3.07;;;0.73;;
13374;SDS011;6756;51.354;15.754;2022-07-17T11:58:56;3.73;;;1.00;;
13374;SDS011;6756;51.354;15.754;2022-07-17T12:03:01;2.80;;;0.73;;
13374;SDS011;6756;51.354;15.754;2022-07-17T12:07:03;1.67;;;0.80;;
13374;SDS011;6756;51.354;15.754;2022-07-17T12:11:05;3.13;;;0.80;;
13374;SDS011;6756;51.354;15.754;2022-07-17T12:15:09;3.00;;;1.23;;
13374;SDS011;6756;51.354;15.754;2022-07-17T12:23:35;5.03;;;1.07;;
13374;SDS011;6756;51.354;15.754;2022-07-17T12:27:37;3.93;;;0.70;;
13374;SDS011;6756;51.354;15.754;2022-07-17T12:31:38;2.57;;;0.83;;
13374;SDS011;6756;51.354;15.754;2022-07-17T12:35:38;3.57;;;0.83;;
13374;SDS011;6756;51.354;15.754;2022-07-17T12:39:39;4.40;;;1.20;;
13374;SDS011;6756;51.354;15.754;2022-07-17T12:43:40;3.23;;;0.90;;
13374;SDS011;6756;51.354;15.754;2022-07-17T12:47:41;4.23;;;0.70;;
13374;SDS011;6756;51.354;15.754;2022-07-17T12:51:42;5.17;;;1.00;;
13374;SDS011;6756;51.354;15.754;2022-07-17T12:55:43;2.33;;;0.73;;
13374;SDS011;6756;51.354;15.754;2022-07-17T12:59:44;4.17;;;0.90;;
13374;SDS011;6756;51.354;15.754;2022-07-17T13:03:45;1.97;;;0.70;;
13374;SDS011;6756;51.354;15.754;2022-07-17T13:07:47;4.47;;;0.97;;
13374;SDS011;6756;51.354;15.754;2022-07-17T13:11:48;3.13;;;1.00;;
13374;SDS011;6756;51.354;15.754;2022-07-17T13:15:51;3.40;;;1.00;;
13374;SDS011;6756;51.354;15.754;2022-07-17T13:19:52;3.03;;;0.60;;
13374;SDS011;6756;51.354;15.754;2022-07-17T13:23:53;2.50;;;0.70;;
13374;SDS011;6756;51.354;15.754;2022-07-17T13:27:54;3.13;;;1.00;;
13374;SDS011;6756;51.354;15.754;2022-07-17T13:31:55;3.37;;;0.90;;
13374;SDS011;6756;51.354;15.754;2022-07-17T13:35:56;3.23;;;0.80;;
13374;SDS011;6756;51.354;15.754;2022-07-17T13:39:57;2.80;;;0.93;;
13374;SDS011;6756;51.354;15.754;2022-07-17T13:43:58;4.67;;;1.00;;
13374;SDS011;6756;51.354;15.754;2022-07-17T13:47:59;3.17;;;0.90;;
13374;SDS011;6756;51.354;15.754;2022-07-17T13:52:01;2.57;;;1.00;;
13374;SDS011;6756;51.354;15.754;2022-07-17T13:56:02;3.70;;;0.90;;
13374;SDS011;6756;51.354;15.754;2022-07-17T14:00:03;3.20;;;0.87;;
13374;SDS011;6756;51.354;15.754;2022-07-17T14:04:05;4.00;;;1.27;;
13374;SDS011;6756;51.354;15.754;2022-07-17T14:08:06;4.10;;;1.10;;
13374;SDS011;6756;51.354;15.754;2022-07-17T14:12:07;5.17;;;1.10;;
13374;SDS011;6756;51.354;15.754;2022-07-17T14:16:08;2.17;;;0.70;;
13374;SDS011;6756;51.354;15.754;2022-07-17T14:20:09;3.00;;;0.70;;
13374;SDS011;6756;51.354;15.754;2022-07-17T14:24:11;3.57;;;0.60;;
13374;SDS011;6756;51.354;15.754;2022-07-17T14:28:12;4.50;;;0.80;;
13374;SDS011;6756;51.354;15.754;2022-07-17T14:32:13;3.10;;;1.00;;
13374;SDS011;6756;51.354;15.754;2022-07-17T14:36:14;4.83;;;0.70;;
13374;SDS011;6756;51.354;15.754;2022-07-17T14:40:15;3.07;;;0.70;;
13374;SDS011;6756;51.354;15.754;2022-07-17T14:44:16;2.23;;;0.90;;
13374;SDS011;6756;51.354;15.754;2022-07-17T14:48:17;1.53;;;0.57;;
13374;SDS011;6756;51.354;15.754;2022-07-17T14:52:18;3.70;;;0.83;;
13374;SDS011;6756;51.354;15.754;2022-07-17T14:56:19;2.23;;;0.53;;
13374;SDS011;6756;51.354;15.754;2022-07-17T15:00:20;1.23;;;0.60;;
13374;SDS011;6756;51.354;15.754;2022-07-17T15:04:21;2.97;;;0.77;;
13374;SDS011;6756;51.354;15.754;2022-07-17T15:08:22;2.87;;;0.60;;
13374;SDS011;6756;51.354;15.754;2022-07-17T15:12:22;2.50;;;0.43;;
13374;SDS011;6756;51.354;15.754;2022-07-17T15:16:23;2.27;;;0.73;;
13374;SDS011;6756;51.354;15.754;2022-07-17T15:20:24;3.10;;;0.63;;
13374;SDS011;6756;51.354;15.754;2022-07-17T15:24:25;2.53;;;0.53;;
13374;SDS011;6756;51.354;15.754;2022-07-17T15:28:26;8.17;;;2.50;;
13374;SDS011;6756;51.354;15.754;2022-07-17T15:32:27;4.27;;;1.00;;
13374;SDS011;6756;51.354;15.754;2022-07-17T15:36:27;4.40;;;0.73;;
13374;SDS011;6756;51.354;15.754;2022-07-17T15:40:29;5.60;;;1.77;;
13374;SDS011;6756;51.354;15.754;2022-07-17T15:44:30;1.80;;;0.60;;
13374;SDS011;6756;51.354;15.754;2022-07-17T15:48:31;2.33;;;0.90;;
13374;SDS011;6756;51.354;15.754;2022-07-17T15:52:32;2.57;;;0.80;;
13374;SDS011;6756;51.354;15.754;2022-07-17T15:56:33;2.53;;;0.80;;
13374;SDS011;6756;51.354;15.754;2022-07-17T16:00:35;4.40;;;0.97;;
13374;SDS011;6756;51.354;15.754;2022-07-17T16:04:36;2.83;;;0.83;;
13374;SDS011;6756;51.354;15.754;2022-07-17T16:08:37;2.20;;;0.60;;
13374;SDS011;6756;51.354;15.754;2022-07-17T16:12:39;2.17;;;0.67;;
13374;SDS011;6756;51.354;15.754;2022-07-17T16:16:40;2.27;;;0.53;;
13374;SDS011;6756;51.354;15.754;2022-07-17T16:20:41;4.17;;;0.90;;
13374;SDS011;6756;51.354;15.754;2022-07-17T16:24:41;2.40;;;0.83;;
13374;SDS011;6756;51.354;15.754;2022-07-17T16:28:42;4.40;;;1.00;;
13374;SDS011;6756;51.354;15.754;2022-07-17T16:32:44;2.17;;;0.80;;
13374;SDS011;6756;51.354;15.754;2022-07-17T16:36:45;2.63;;;0.70;;
13374;SDS011;6756;51.354;15.754;2022-07-17T16:40:46;2.90;;;1.00;;
13374;SDS011;6756;51.354;15.754;2022-07-17T16:44:47;2.27;;;1.03;;
13374;SDS011;6756;51.354;15.754;2022-07-17T16:48:48;6.17;;;1.10;;
13374;SDS011;6756;51.354;15.754;2022-07-17T16:52:49;1.90;;;0.83;;
13374;SDS011;6756;51.354;15.754;2022-07-17T16:56:50;3.77;;;0.80;;
13374;SDS011;6756;51.354;15.754;2022-07-17T17:00:50;2.77;;;0.83;;
13374;SDS011;6756;51.354;15.754;2022-07-17T17:04:52;3.17;;;0.70;;
13374;SDS011;6756;51.354;15.754;2022-07-17T17:08:53;2.50;;;0.87;;
13374;SDS011;6756;51.354;15.754;2022-07-17T17:12:54;2.27;;;0.73;;
13374;SDS011;6756;51.354;15.754;2022-07-17T17:16:55;3.13;;;0.93;;
13374;SDS011;6756;51.354;15.754;2022-07-17T17:20:56;3.13;;;0.70;;
13374;SDS011;6756;51.354;15.754;2022-07-17T17:24:57;3.23;;;1.03;;
13374;SDS011;6756;51.354;15.754;2022-07-17T17:28:57;2.30;;;0.80;;
13374;SDS011;6756;51.354;15.754;2022-07-17T17:32:59;3.90;;;2.20;;
13374;SDS011;6756;51.354;15.754;2022-07-17T17:36:59;5.87;;;1.30;;
13374;SDS011;6756;51.354;15.754;2022-07-17T17:41:01;2.30;;;0.87;;
13374;SDS011;6756;51.354;15.754;2022-07-17T17:45:02;2.47;;;0.87;;
13374;SDS011;6756;51.354;15.754;2022-07-17T17:49:04;4.50;;;1.00;;
13374;SDS011;6756;51.354;15.754;2022-07-17T17:53:05;4.23;;;0.93;;
13374;SDS011;6756;51.354;15.754;2022-07-17T17:57:06;2.50;;;0.80;;
13374;SDS011;6756;51.354;15.754;2022-07-17T18:01:07;1.57;;;0.70;;
13374;SDS011;6756;51.354;15.754;2022-07-17T18:05:08;2.37;;;0.90;;
13374;SDS011;6756;51.354;15.754;2022-07-17T18:09:09;4.77;;;1.00;;
13374;SDS011;6756;51.354;15.754;2022-07-17T18:13:11;2.80;;;1.00;;
13374;SDS011;6756;51.354;15.754;2022-07-17T18:17:12;7.13;;;2.70;;
13374;SDS011;6756;51.354;15.754;2022-07-17T18:21:13;6.93;;;3.20;;
13374;SDS011;6756;51.354;15.754;2022-07-17T18:25:14;5.87;;;2.20;;
13374;SDS011;6756;51.354;15.754;2022-07-17T18:29:15;3.07;;;1.33;;
13374;SDS011;6756;51.354;15.754;2022-07-17T18:33:16;2.90;;;0.80;;
13374;SDS011;6756;51.354;15.754;2022-07-17T18:37:17;1.97;;;0.70;;
13374;SDS011;6756;51.354;15.754;2022-07-17T18:41:18;2.47;;;1.20;;
13374;SDS011;6756;51.354;15.754;2022-07-17T18:45:19;3.13;;;1.00;;
13374;SDS011;6756;51.354;15.754;2022-07-17T18:49:20;1.47;;;0.80;;
13374;SDS011;6756;51.354;15.754;2022-07-17T18:53:21;1.50;;;0.70;;
13374;SDS011;6756;51.354;15.754;2022-07-17T18:57:23;1.33;;;0.80;;
13374;SDS011;6756;51.354;15.754;2022-07-17T19:01:24;1.10;;;0.60;;
13374;SDS011;6756;51.354;15.754;2022-07-17T19:05:25;1.23;;;0.60;;
13374;SDS011;6756;51.354;15.754;2022-07-17T19:09:28;1.40;;;0.63;;
13374;SDS011;6756;51.354;15.754;2022-07-17T19:13:28;2.00;;;0.60;;
13374;SDS011;6756;51.354;15.754;2022-07-17T19:17:30;1.77;;;0.90;;
13374;SDS011;6756;51.354;15.754;2022-07-17T19:21:43;1.27;;;0.70;;
13374;SDS011;6756;51.354;15.754;2022-07-17T19:25:48;1.87;;;1.00;;
13374;SDS011;6756;51.354;15.754;2022-07-17T19:29:49;1.60;;;0.90;;
13374;SDS011;6756;51.354;15.754;2022-07-17T19:33:51;1.90;;;1.07;;
13374;SDS011;6756;51.354;15.754;2022-07-17T19:37:52;1.70;;;0.97;;
13374;SDS011;6756;51.354;15.754;2022-07-17T19:41:53;2.63;;;0.87;;
13374;SDS011;6756;51.354;15.754;2022-07-17T19:45:54;1.83;;;1.13;;
13374;SDS011;6756;51.354;15.754;2022-07-17T19:49:55;2.73;;;1.07;;
13374;SDS011;6756;51.354;15.754;2022-07-17T19:53:56;1.40;;;1.00;;
13374;SDS011;6756;51.354;15.754;2022-07-17T19:57:57;1.93;;;1.00;;
13374;SDS011;6756;51.354;15.754;2022-07-17T20:01:58;1.93;;;0.80;;
13374;SDS011;6756;51.354;15.754;2022-07-17T20:05:59;0.70;;;0.60;;
13374;SDS011;6756;51.354;15.754;2022-07-17T20:10:00;1.30;;;0.90;;
13374;SDS011;6756;51.354;15.754;2022-07-17T20:14:01;2.07;;;0.93;;
13374;SDS011;6756;51.354;15.754;2022-07-17T20:18:03;1.20;;;0.87;;
13374;SDS011;6756;51.354;15.754;2022-07-17T20:22:04;1.87;;;0.73;;
13374;SDS011;6756;51.354;15.754;2022-07-17T20:26:05;1.73;;;1.00;;
13374;SDS011;6756;51.354;15.754;2022-07-17T20:30:07;1.70;;;0.87;;
13374;SDS011;6756;51.354;15.754;2022-07-17T20:34:08;1.53;;;0.80;;
13374;SDS011;6756;51.354;15.754;2022-07-17T20:38:09;1.57;;;1.00;;
13374;SDS011;6756;51.354;15.754;2022-07-17T20:42:10;1.23;;;0.80;;
13374;SDS011;6756;51.354;15.754;2022-07-17T20:46:12;1.73;;;0.80;;
13374;SDS011;6756;51.354;15.754;2022-07-17T20:50:18;0.77;;;0.60;;
13374;SDS011;6756;51.354;15.754;2022-07-17T20:54:19;1.70;;;0.90;;
13374;SDS011;6756;51.354;15.754;2022-07-17T20:58:20;1.70;;;0.90;;
13374;SDS011;6756;51.354;15.754;2022-07-17T21:02:25;1.23;;;0.90;;
13374;SDS011;6756;51.354;15.754;2022-07-17T21:06:25;8.80;;;3.47;;
13374;SDS011;6756;51.354;15.754;2022-07-17T21:10:26;13.93;;;5.10;;
13374;SDS011;6756;51.354;15.754;2022-07-17T21:14:27;11.23;;;6.07;;
13374;SDS011;6756;51.354;15.754;2022-07-17T21:18:29;8.43;;;4.37;;
13374;SDS011;6756;51.354;15.754;2022-07-17T21:22:29;4.13;;;2.67;;
13374;SDS011;6756;51.354;15.754;2022-07-17T21:26:36;5.67;;;2.70;;
13374;SDS011;6756;51.354;15.754;2022-07-17T21:30:37;5.13;;;2.30;;
13374;SDS011;6756;51.354;15.754;2022-07-17T21:34:39;3.30;;;2.07;;
13374;SDS011;6756;51.354;15.754;2022-07-17T21:38:40;2.97;;;1.73;;
13374;SDS011;6756;51.354;15.754;2022-07-17T21:42:42;3.23;;;1.90;;
13374;SDS011;6756;51.354;15.754;2022-07-17T21:46:43;3.13;;;1.73;;
13374;SDS011;6756;51.354;15.754;2022-07-17T21:50:44;4.80;;;2.13;;
13374;SDS011;6756;51.354;15.754;2022-07-17T21:54:45;4.63;;;2.00;;
13374;SDS011;6756;51.354;15.754;2022-07-17T21:58:46;3.47;;;1.70;;
13374;SDS011;6756;51.354;15.754;2022-07-17T22:02:47;2.13;;;1.50;;
13374;SDS011;6756;51.354;15.754;2022-07-17T22:06:48;1.63;;;1.20;;
13374;SDS011;6756;51.354;15.754;2022-07-17T22:10:49;2.27;;;1.40;;
13374;SDS011;6756;51.354;15.754;2022-07-17T22:14:50;3.83;;;2.00;;
13374;SDS011;6756;51.354;15.754;2022-07-17T22:18:51;3.00;;;1.43;;
13374;SDS011;6756;51.354;15.754;2022-07-17T22:22:52;2.80;;;1.50;;
13374;SDS011;6756;51.354;15.754;2022-07-17T22:26:53;4.33;;;1.30;;
13374;SDS011;6756;51.354;15.754;2022-07-17T22:30:55;2.40;;;1.17;;
13374;SDS011;6756;51.354;15.754;2022-07-17T22:34:56;1.97;;;1.30;;
13374;SDS011;6756;51.354;15.754;2022-07-17T22:38:56;1.20;;;1.00;;
13374;SDS011;6756;51.354;15.754;2022-07-17T22:42:57;2.27;;;0.90;;
13374;SDS011;6756;51.354;15.754;2022-07-17T22:46:58;2.50;;;1.37;;
13374;SDS011;6756;51.354;15.754;2022-07-17T22:50:59;1.63;;;1.20;;
13374;SDS011;6756;51.354;15.754;2022-07-17T22:55:00;1.80;;;0.90;;
13374;SDS011;6756;51.354;15.754;2022-07-17T22:59:01;1.77;;;1.30;;
13374;SDS011;6756;51.354;15.754;2022-07-17T23:03:02;1.10;;;0.97;;
13374;SDS011;6756;51.354;15.754;2022-07-17T23:07:03;2.17;;;1.40;;
13374;SDS011;6756;51.354;15.754;2022-07-17T23:11:04;8.07;;;4.80;;
13374;SDS011;6756;51.354;15.754;2022-07-17T23:15:05;16.23;;;10.57;;
13374;SDS011;6756;51.354;15.754;2022-07-17T23:19:06;6.07;;;4.10;;
13374;SDS011;6756;51.354;15.754;2022-07-17T23:23:07;5.10;;;3.10;;
13374;SDS011;6756;51.354;15.754;2022-07-17T23:27:08;2.37;;;1.50;;
13374;SDS011;6756;51.354;15.754;2022-07-17T23:31:09;1.67;;;1.50;;
13374;SDS011;6756;51.354;15.754;2022-07-17T23:35:10;2.07;;;1.50;;
13374;SDS011;6756;51.354;15.754;2022-07-17T23:39:11;1.70;;;1.23;;
13374;SDS011;6756;51.354;15.754;2022-07-17T23:43:12;2.03;;;1.20;;
13374;SDS011;6756;51.354;15.754;2022-07-17T23:47:16;1.20;;;1.10;;
13374;SDS011;6756;51.354;15.754;2022-07-17T23:51:17;1.83;;;1.50;;
13374;SDS011;6756;51.354;15.754;2022-07-17T23:55:19;3.00;;;1.37;;
13374;SDS011;6756;51.354;15.754;2022-07-17T23:59:20;1.47;;;1.30;;
